Time;durP1;ratioP1;P1;durP2;ratioP2;P2;SDS_P1;SDS_P2;PMS_P1;PMS_P2;Temp;Humidity;BMP_temperature;BMP_pressure;BME280_temperature;BME280_humidity;BME280_pressure;Samples;Min_cycle;Max_cycle;Signal;HPM_P1;HPM_P2
2024/04/17 00:02:01;;;;;;;23.98;4.55;;;;;;;;;;5383397;26;20004;-55
2024/04/17 00:04:26;;;;;;;23.92;4.72;;;;;;;;;;5405845;26;20065;-56
2024/04/17 00:06:51;;;;;;;23.02;4.68;;;;;;;;;;5416890;26;20003;-55
2024/04/17 00:09:16;;;;;;;24.20;4.93;;;;;;;;;;5418430;26;20007;-53
2024/04/17 00:11:42;;;;;;;19.88;4.82;;;;;;;;;;5415668;26;20009;-54
2024/04/17 00:14:07;;;;;;;23.83;5.05;;;;;;;;;;5396679;26;20019;-52
2024/04/17 00:16:32;;;;;;;20.70;4.78;;;;;;;;;;5383805;26;20004;-54
2024/04/17 00:18:57;;;;;;;24.80;6.15;;;;;;;;;;5383940;26;19988;-56
2024/04/17 00:21:22;;;;;;;22.38;5.38;;;;;;;;;;5386154;26;20000;-52
2024/04/17 00:23:48;;;;;;;21.88;5.30;;;;;;;;;;5383599;26;19988;-56
2024/04/17 00:26:13;;;;;;;26.42;5.90;;;;;;;;;;5386014;26;20008;-57
2024/04/17 00:28:38;;;;;;;26.40;5.47;;;;;;;;;;5383539;26;20001;-55
2024/04/17 00:31:03;;;;;;;23.05;4.93;;;;;;;;;;5383401;26;20004;-55
2024/04/17 00:33:29;;;;;;;25.02;5.50;;;;;;;;;;5383391;26;20019;-53
2024/04/17 00:35:54;;;;;;;25.95;5.18;;;;;;;;;;5383963;26;20000;-53
2024/04/17 00:38:19;;;;;;;22.92;5.10;;;;;;;;;;5384099;26;19992;-56
2024/04/17 00:40:45;;;;;;;24.00;5.47;;;;;;;;;;5392108;26;20003;-52
2024/04/17 00:43:10;;;;;;;21.33;5.68;;;;;;;;;;5406035;26;19996;-57
2024/04/17 00:45:43;;;;;;;24.90;5.63;;;;;;;;;;5402980;26;19995;-56
2024/04/17 00:48:10;;;;;;;24.83;5.85;;;;;;;;;;5418589;26;20003;-55
2024/04/17 00:50:36;;;;;;;25.55;5.95;;;;;;;;;;5418375;26;20014;-53
2024/04/17 00:53:02;;;;;;;20.10;6.35;;;;;;;;;;5392123;26;20159;-53
2024/04/17 00:55:27;;;;;;;22.67;5.97;;;;;;;;;;5382828;26;20004;-54
2024/04/17 00:57:53;;;;;;;24.00;6.07;;;;;;;;;;5385707;26;20092;-52
2024/04/17 01:00:18;;;;;;;23.20;5.85;;;;;;;;;;5386713;26;20000;-57
2024/04/17 01:02:43;;;;;;;26.13;6.10;;;;;;;;;;5390229;26;20078;-56
2024/04/17 01:05:08;;;;;;;20.05;5.50;;;;;;;;;;5412848;26;20404;-53
2024/04/17 01:07:34;;;;;;;25.75;5.40;;;;;;;;;;5409428;26;19992;-52
2024/04/17 01:09:59;;;;;;;21.10;5.30;;;;;;;;;;5386575;26;20023;-56
2024/04/17 01:12:24;;;;;;;23.83;5.25;;;;;;;;;;5395232;26;20006;-54
2024/04/17 01:14:49;;;;;;;25.63;5.40;;;;;;;;;;5390515;26;19995;-54
2024/04/17 01:17:15;;;;;;;23.45;5.25;;;;;;;;;;5421070;26;20019;-53
2024/04/17 01:19:40;;;;;;;22.55;5.72;;;;;;;;;;5390014;26;20024;-54
2024/04/17 01:22:06;;;;;;;21.92;4.95;;;;;;;;;;5412638;26;20065;-55
2024/04/17 01:24:31;;;;;;;32.22;6.15;;;;;;;;;;5386044;26;20009;-54
2024/04/17 01:26:56;;;;;;;19.52;4.88;;;;;;;;;;5418328;26;20014;-55
2024/04/17 01:29:21;;;;;;;28.02;6.00;;;;;;;;;;5421679;26;20000;-53
2024/04/17 01:31:47;;;;;;;20.15;5.32;;;;;;;;;;5420941;26;20080;-54
2024/04/17 01:34:12;;;;;;;23.20;5.60;;;;;;;;;;5419476;26;20005;-52
2024/04/17 01:36:37;;;;;;;22.92;4.53;;;;;;;;;;5386067;26;20007;-53
2024/04/17 01:39:02;;;;;;;22.65;5.05;;;;;;;;;;5386517;26;19992;-56
2024/04/17 01:41:28;;;;;;;23.77;5.80;;;;;;;;;;5412141;26;20011;-53
2024/04/17 01:43:53;;;;;;;20.08;4.93;;;;;;;;;;5389750;26;19992;-53
2024/04/17 01:46:18;;;;;;;21.40;4.47;;;;;;;;;;5420384;26;20412;-54
2024/04/17 01:48:43;;;;;;;24.98;5.20;;;;;;;;;;5387040;26;20265;-52
2024/04/17 01:51:08;;;;;;;21.13;4.80;;;;;;;;;;5398639;26;20399;-53
2024/04/17 01:53:34;;;;;;;24.60;4.97;;;;;;;;;;5420438;26;20015;-57
2024/04/17 01:55:59;;;;;;;18.67;4.65;;;;;;;;;;5420797;26;20169;-54
2024/04/17 01:58:25;;;;;;;18.35;4.90;;;;;;;;;;5403875;26;20002;-53
2024/04/17 02:00:50;;;;;;;20.92;4.45;;;;;;;;;;5388517;26;20007;-53
2024/04/17 02:03:15;;;;;;;17.80;4.82;;;;;;;;;;5411310;26;20000;-54
2024/04/17 02:05:40;;;;;;;20.63;4.03;;;;;;;;;;5385250;26;20011;-53
2024/04/17 02:08:06;;;;;;;19.23;4.25;;;;;;;;;;5417433;26;20007;-55
2024/04/17 02:10:31;;;;;;;16.75;4.63;;;;;;;;;;5421172;26;20090;-54
2024/04/17 02:12:56;;;;;;;21.85;4.50;;;;;;;;;;5411286;26;20007;-54
2024/04/17 02:15:21;;;;;;;18.48;4.45;;;;;;;;;;5385479;26;20003;-57
2024/04/17 02:17:46;;;;;;;18.27;4.75;;;;;;;;;;5385060;26;20003;-56
2024/04/17 02:20:12;;;;;;;22.95;4.75;;;;;;;;;;5385128;26;20063;-53
2024/04/17 02:22:37;;;;;;;20.02;4.32;;;;;;;;;;5407655;26;20000;-56
2024/04/17 02:25:03;;;;;;;23.83;4.80;;;;;;;;;;5388620;26;20011;-52
2024/04/17 02:27:28;;;;;;;18.63;4.20;;;;;;;;;;5415961;26;20011;-51
2024/04/17 02:29:53;;;;;;;14.20;4.13;;;;;;;;;;5385268;26;20003;-55
2024/04/17 02:32:19;;;;;;;21.42;4.50;;;;;;;;;;5385051;26;19997;-53
2024/04/17 02:34:44;;;;;;;21.25;4.85;;;;;;;;;;5385030;26;20004;-54
2024/04/17 02:37:09;;;;;;;14.73;4.32;;;;;;;;;;5385698;26;20268;-52
2024/04/17 02:39:35;;;;;;;21.67;5.05;;;;;;;;;;5384299;26;19992;-56
2024/04/17 02:42:00;;;;;;;24.92;4.93;;;;;;;;;;5384861;26;20000;-53
2024/04/17 02:44:25;;;;;;;15.95;4.45;;;;;;;;;;5387833;26;19992;-54
2024/04/17 02:46:50;;;;;;;15.73;5.03;;;;;;;;;;5384905;26;20015;-52
2024/04/17 02:49:16;;;;;;;19.90;5.07;;;;;;;;;;5391480;26;20006;-54
2024/04/17 02:51:42;;;;;;;20.20;5.15;;;;;;;;;;5407491;26;19992;-52
2024/04/17 02:54:07;;;;;;;13.10;4.65;;;;;;;;;;5384854;26;19996;-52
2024/04/17 02:56:32;;;;;;;15.60;4.75;;;;;;;;;;5410465;26;19996;-54
2024/04/17 02:58:57;;;;;;;18.05;5.32;;;;;;;;;;5389903;26;20332;-53
2024/04/17 03:01:24;;;;;;;15.05;4.35;;;;;;;;;;5382270;21;20005;-87
2024/04/17 03:03:51;;;;;;;15.88;4.55;;;;;;;;;;5349536;26;20001;-87
2024/04/17 03:06:20;;;;;;;16.95;4.43;;;;;;;;;;5347090;26;19997;-87
2024/04/17 03:08:58;;;;;;;20.95;4.70;;;;;;;;;;5350016;26;20012;-87
2024/04/17 03:11:25;;;;;;;15.15;4.30;;;;;;;;;;5319367;26;20005;-87
2024/04/17 03:13:51;;;;;;;15.35;4.47;;;;;;;;;;5350024;26;20008;-87
2024/04/17 03:16:18;;;;;;;15.35;4.10;;;;;;;;;;5319371;26;19992;-87
2024/04/17 03:18:43;;;;;;;18.27;4.30;;;;;;;;;;5349806;26;20008;-87
2024/04/17 03:21:08;;;;;;;14.43;4.20;;;;;;;;;;5317124;26;20015;-87
2024/04/17 03:23:35;;;;;;;14.25;4.55;;;;;;;;;;5318908;26;20029;-88
2024/04/17 03:26:00;;;;;;;12.52;4.28;;;;;;;;;;5318914;26;20386;-87
2024/04/17 03:28:26;;;;;;;13.20;4.35;;;;;;;;;;5319239;26;19993;-87
2024/04/17 03:30:53;;;;;;;16.10;4.30;;;;;;;;;;5319243;26;20399;-87
2024/04/17 03:33:19;;;;;;;20.43;4.67;;;;;;;;;;5320253;26;20024;-87
2024/04/17 03:35:58;;;;;;;14.85;4.38;;;;;;;;;;5319934;26;20287;-88
2024/04/17 03:38:23;;;;;;;15.48;4.60;;;;;;;;;;5320095;26;20000;-88
2024/04/17 03:40:50;;;;;;;15.93;4.00;;;;;;;;;;5319590;26;20048;-87
2024/04/17 03:43:16;;;;;;;16.45;4.65;;;;;;;;;;5320020;26;20004;-88
2024/04/17 03:45:43;;;;;;;14.75;4.68;;;;;;;;;;5319979;26;20000;-87
2024/04/17 03:48:08;;;;;;;18.17;4.65;;;;;;;;;;5319945;26;20406;-88
2024/04/17 03:50:34;;;;;;;18.75;4.57;;;;;;;;;;5319960;26;20004;-87
2024/04/17 03:53:00;;;;;;;15.82;5.05;;;;;;;;;;5291031;26;20009;-88
2024/04/17 03:55:25;;;;;;;12.05;4.28;;;;;;;;;;5319518;26;20411;-88
2024/04/17 03:57:53;;;;;;;12.90;4.30;;;;;;;;;;5320005;26;20004;-88
2024/04/17 04:00:18;;;;;;;18.13;4.82;;;;;;;;;;5335308;21;20410;-50
2024/04/17 04:02:44;;;;;;;17.95;4.35;;;;;;;;;;5384236;26;20023;-52
2024/04/17 04:05:09;;;;;;;17.70;4.30;;;;;;;;;;5385418;26;20046;-51
2024/04/17 04:07:35;;;;;;;12.18;4.45;;;;;;;;;;5385367;26;20000;-51
2024/04/17 04:10:00;;;;;;;18.42;4.63;;;;;;;;;;5385209;26;20004;-51
2024/04/17 04:12:25;;;;;;;13.63;4.57;;;;;;;;;;5384852;26;20000;-53
2024/04/17 04:14:51;;;;;;;16.08;4.30;;;;;;;;;;5384935;26;20289;-53
2024/04/17 04:17:16;;;;;;;12.40;4.30;;;;;;;;;;5384337;26;19996;-50
2024/04/17 04:19:42;;;;;;;17.38;4.65;;;;;;;;;;5384699;26;19995;-51
2024/04/17 04:22:07;;;;;;;20.87;5.00;;;;;;;;;;5384609;26;20397;-53
2024/04/17 04:24:32;;;;;;;13.90;4.30;;;;;;;;;;5384033;26;19992;-52
2024/04/17 04:26:58;;;;;;;15.05;4.63;;;;;;;;;;5384818;26;20000;-52
2024/04/17 04:29:23;;;;;;;13.68;4.55;;;;;;;;;;5384906;26;19996;-51
2024/04/17 04:31:48;;;;;;;17.88;4.13;;;;;;;;;;5383854;26;19988;-52
2024/04/17 04:34:14;;;;;;;15.30;5.28;;;;;;;;;;5384476;26;19998;-53
2024/04/17 04:36:39;;;;;;;15.68;4.70;;;;;;;;;;5353482;26;20022;-51
2024/04/17 04:39:05;;;;;;;13.40;4.05;;;;;;;;;;5383958;26;20435;-51
2024/04/17 04:41:30;;;;;;;14.93;4.90;;;;;;;;;;5384270;26;20393;-51
2024/04/17 04:43:55;;;;;;;19.15;4.82;;;;;;;;;;5384448;26;19996;-51
2024/04/17 04:46:20;;;;;;;16.47;5.10;;;;;;;;;;5384335;26;19988;-51
2024/04/17 04:48:46;;;;;;;17.87;5.23;;;;;;;;;;5384108;26;19988;-51
2024/04/17 04:51:11;;;;;;;15.38;5.30;;;;;;;;;;5384222;26;20004;-52
2024/04/17 04:53:36;;;;;;;13.80;4.78;;;;;;;;;;5384640;26;20002;-53
2024/04/17 04:56:05;;;;;;;18.70;5.72;;;;;;;;;;5384435;26;20575;-54
2024/04/17 04:58:30;;;;;;;16.23;5.88;;;;;;;;;;5383769;26;20308;-50
2024/04/17 05:00:57;;;;;;;15.00;5.35;;;;;;;;;;5383991;26;20008;-52
2024/04/17 05:03:22;;;;;;;17.92;5.70;;;;;;;;;;5383970;26;20004;-51
2024/04/17 05:05:49;;;;;;;17.58;6.45;;;;;;;;;;5383360;26;20416;-51
2024/04/17 05:08:16;;;;;;;20.77;6.57;;;;;;;;;;5382588;26;20019;-52
2024/04/17 05:10:41;;;;;;;16.95;5.65;;;;;;;;;;5384282;26;20019;-51
2024/04/17 05:13:06;;;;;;;23.38;6.22;;;;;;;;;;5384002;26;19992;-51
2024/04/17 05:15:33;;;;;;;20.27;5.87;;;;;;;;;;5383878;26;20348;-52
2024/04/17 05:18:00;;;;;;;18.27;5.63;;;;;;;;;;5383140;26;20356;-51
2024/04/17 05:20:26;;;;;;;26.13;6.68;;;;;;;;;;5383486;26;20000;-51
2024/04/17 05:22:51;;;;;;;21.02;6.40;;;;;;;;;;5383651;26;19996;-53
2024/04/17 05:25:16;;;;;;;19.27;6.40;;;;;;;;;;5383993;26;20348;-52
2024/04/17 05:27:41;;;;;;;21.30;6.82;;;;;;;;;;5383504;26;20087;-52
2024/04/17 05:30:10;;;;;;;26.70;6.30;;;;;;;;;;5383390;26;20471;-52
2024/04/17 05:32:36;;;;;;;20.65;6.00;;;;;;;;;;5383612;26;20004;-54
2024/04/17 05:35:01;;;;;;;24.63;6.70;;;;;;;;;;5383758;26;20055;-51
2024/04/17 05:37:27;;;;;;;25.08;6.43;;;;;;;;;;5383507;26;19997;-51
2024/04/17 05:39:52;;;;;;;18.73;5.53;;;;;;;;;;5383747;26;20007;-51
2024/04/17 05:42:17;;;;;;;28.88;6.53;;;;;;;;;;5383137;26;20079;-53
2024/04/17 05:44:43;;;;;;;20.48;5.85;;;;;;;;;;5386207;26;20011;-52
2024/04/17 05:47:08;;;;;;;19.40;5.95;;;;;;;;;;5387183;26;19988;-52
2024/04/17 05:49:33;;;;;;;21.48;5.82;;;;;;;;;;5386580;26;19998;-51
2024/04/17 05:51:58;;;;;;;17.55;5.30;;;;;;;;;;5387755;26;19996;-53
2024/04/17 05:54:23;;;;;;;20.58;6.18;;;;;;;;;;5387117;26;20401;-51
2024/04/17 05:56:49;;;;;;;22.00;6.00;;;;;;;;;;5386014;26;19988;-52
2024/04/17 05:59:15;;;;;;;17.38;5.60;;;;;;;;;;5385384;26;20066;-52
2024/04/17 06:01:40;;;;;;;21.02;6.57;;;;;;;;;;5355629;26;20008;-53
2024/04/17 06:04:05;;;;;;;21.35;6.38;;;;;;;;;;5386429;26;20004;-52
2024/04/17 06:06:31;;;;;;;23.35;7.15;;;;;;;;;;5386579;26;19992;-54
2024/04/17 06:08:56;;;;;;;19.88;7.70;;;;;;;;;;5386926;26;20000;-52
2024/04/17 06:11:22;;;;;;;21.33;6.50;;;;;;;;;;5386919;26;19992;-52
2024/04/17 06:13:48;;;;;;;22.80;6.55;;;;;;;;;;5387505;26;20324;-52
2024/04/17 06:16:13;;;;;;;19.40;6.95;;;;;;;;;;5386518;26;20008;-51
2024/04/17 06:18:38;;;;;;;16.92;7.05;;;;;;;;;;5386680;26;20003;-53
2024/04/17 06:21:03;;;;;;;21.30;6.47;;;;;;;;;;5385897;26;19996;-52
2024/04/17 06:23:29;;;;;;;22.70;6.93;;;;;;;;;;5386374;26;19996;-53
2024/04/17 06:25:55;;;;;;;25.38;7.07;;;;;;;;;;5386546;26;20381;-52
2024/04/17 06:28:20;;;;;;;20.50;6.45;;;;;;;;;;5387216;26;20319;-52
2024/04/17 06:30:45;;;;;;;21.45;6.30;;;;;;;;;;5386156;26;19992;-54
2024/04/17 06:33:10;;;;;;;17.90;6.20;;;;;;;;;;5386536;26;19992;-53
2024/04/17 06:35:36;;;;;;;14.73;5.50;;;;;;;;;;5386712;26;20000;-52
2024/04/17 06:38:01;;;;;;;19.23;6.72;;;;;;;;;;5386558;26;20384;-55
2024/04/17 06:40:26;;;;;;;21.45;6.47;;;;;;;;;;5386191;26;20000;-51
2024/04/17 06:42:51;;;;;;;17.50;5.40;;;;;;;;;;5387120;26;20001;-51
2024/04/17 06:45:16;;;;;;;17.40;6.07;;;;;;;;;;5386719;26;20000;-51
2024/04/17 06:47:43;;;;;;;19.73;6.30;;;;;;;;;;5386354;26;20058;-53
2024/04/17 06:50:09;;;;;;;19.05;6.00;;;;;;;;;;5386293;26;20004;-54
2024/04/17 06:52:34;;;;;;;19.67;6.57;;;;;;;;;;5386534;26;20281;-52
2024/04/17 06:54:59;;;;;;;14.48;5.80;;;;;;;;;;5386413;26;19992;-52
2024/04/17 06:57:24;;;;;;;16.50;5.18;;;;;;;;;;5384907;26;20591;-52
2024/04/17 06:59:49;;;;;;;19.00;5.82;;;;;;;;;;5385707;26;19992;-52
2024/04/17 07:02:15;;;;;;;18.77;6.00;;;;;;;;;;5385267;26;19997;-53
2024/04/17 07:04:40;;;;;;;15.60;5.15;;;;;;;;;;5385700;26;19992;-52
2024/04/17 07:07:05;;;;;;;17.60;6.25;;;;;;;;;;5386047;26;20290;-52
2024/04/17 07:09:30;;;;;;;17.02;5.63;;;;;;;;;;5386013;26;20008;-51
2024/04/17 07:11:56;;;;;;;14.68;5.78;;;;;;;;;;5385887;26;20011;-53
2024/04/17 07:14:21;;;;;;;16.92;5.70;;;;;;;;;;5385684;26;19999;-52
2024/04/17 07:16:46;;;;;;;13.38;5.32;;;;;;;;;;5385408;26;19989;-52
2024/04/17 07:19:11;;;;;;;15.20;5.65;;;;;;;;;;5385540;26;20408;-54
2024/04/17 07:21:37;;;;;;;15.48;5.90;;;;;;;;;;5385375;26;20003;-53
2024/04/17 07:24:03;;;;;;;15.27;5.50;;;;;;;;;;5385805;26;20058;-51
2024/04/17 07:26:28;;;;;;;14.75;5.88;;;;;;;;;;5386029;26;20008;-52
2024/04/17 07:28:53;;;;;;;12.32;5.38;;;;;;;;;;5385884;26;19996;-53
2024/04/17 07:31:18;;;;;;;13.40;6.03;;;;;;;;;;5385691;26;20003;-51
2024/04/17 07:33:47;;;;;;;11.43;5.15;;;;;;;;;;5385687;26;20001;-52
2024/04/17 07:36:12;;;;;;;15.15;5.47;;;;;;;;;;5385757;26;20015;-53
2024/04/17 07:38:38;;;;;;;11.68;4.90;;;;;;;;;;5385709;26;20008;-52
2024/04/17 07:41:03;;;;;;;11.52;4.13;;;;;;;;;;5385480;26;20011;-54
2024/04/17 07:43:30;;;;;;;10.75;4.35;;;;;;;;;;5385276;26;20002;-55
2024/04/17 07:45:59;;;;;;;7.60;3.67;;;;;;;;;;5385063;26;20008;-51
2024/04/17 07:48:24;;;;;;;9.35;3.50;;;;;;;;;;5354490;26;20059;-53
2024/04/17 07:50:50;;;;;;;11.07;3.72;;;;;;;;;;5385240;26;20008;-53
2024/04/17 07:53:15;;;;;;;9.90;4.43;;;;;;;;;;5385334;26;19997;-54
2024/04/17 07:55:40;;;;;;;8.23;3.60;;;;;;;;;;5386368;26;20312;-52
2024/04/17 07:58:05;;;;;;;9.18;3.70;;;;;;;;;;5385404;26;20011;-54
2024/04/17 08:00:32;;;;;;;7.03;3.55;;;;;;;;;;5384911;26;20431;-52
2024/04/17 08:02:57;;;;;;;8.10;3.70;;;;;;;;;;5383786;26;20008;-53
2024/04/17 08:05:22;;;;;;;7.10;3.55;;;;;;;;;;5354202;26;19988;-53
2024/04/17 08:07:47;;;;;;;8.45;4.75;;;;;;;;;;5384236;26;20008;-53
2024/04/17 08:10:13;;;;;;;13.93;5.95;;;;;;;;;;5385567;26;19996;-52
2024/04/17 08:12:40;;;;;;;16.42;8.65;;;;;;;;;;5384941;26;19988;-56
2024/04/17 08:15:06;;;;;;;12.02;5.00;;;;;;;;;;5385131;26;20014;-51
2024/04/17 08:17:31;;;;;;;11.00;4.85;;;;;;;;;;5385550;26;19996;-54
2024/04/17 08:19:58;;;;;;;9.20;5.93;;;;;;;;;;5384681;26;19988;-52
2024/04/17 08:22:23;;;;;;;10.25;7.18;;;;;;;;;;5384758;26;20012;-51
2024/04/17 08:24:48;;;;;;;12.77;7.45;;;;;;;;;;5384660;26;20365;-56
2024/04/17 08:27:14;;;;;;;15.35;7.18;;;;;;;;;;5384293;26;20011;-50
2024/04/17 08:29:39;;;;;;;9.45;6.03;;;;;;;;;;5384908;26;19996;-52
2024/04/17 08:32:04;;;;;;;14.95;7.70;;;;;;;;;;5384553;26;20412;-53
2024/04/17 08:34:29;;;;;;;10.23;6.30;;;;;;;;;;5384381;26;20091;-51
2024/04/17 08:36:55;;;;;;;10.88;6.43;;;;;;;;;;5384433;26;19998;-55
2024/04/17 08:39:20;;;;;;;14.50;8.80;;;;;;;;;;5384759;26;19988;-52
2024/04/17 08:41:48;;;;;;;16.80;10.57;;;;;;;;;;5384970;26;19996;-54
2024/04/17 08:44:18;;;;;;;13.45;10.00;;;;;;;;;;5353907;26;20015;-55
2024/04/17 08:46:45;;;;;;;11.98;8.93;;;;;;;;;;5384783;26;20008;-52
2024/04/17 08:49:11;;;;;;;15.68;9.23;;;;;;;;;;5384572;26;20294;-54
2024/04/17 08:51:36;;;;;;;17.38;10.35;;;;;;;;;;5384427;26;20000;-53
2024/04/17 08:54:03;;;;;;;15.32;8.98;;;;;;;;;;5384947;26;20046;-53
2024/04/17 08:56:29;;;;;;;11.80;9.02;;;;;;;;;;5384861;26;20015;-52
2024/04/17 08:58:54;;;;;;;13.20;7.80;;;;;;;;;;5384136;26;19996;-52
2024/04/17 09:01:20;;;;;;;11.88;7.50;;;;;;;;;;5383963;26;19996;-53
2024/04/17 09:03:45;;;;;;;11.45;5.70;;;;;;;;;;5384099;26;20063;-53
2024/04/17 09:06:11;;;;;;;9.95;5.63;;;;;;;;;;5384055;26;20000;-53
2024/04/17 09:08:36;;;;;;;9.48;5.18;;;;;;;;;;5384215;26;20000;-54
2024/04/17 09:11:02;;;;;;;8.20;5.18;;;;;;;;;;5353227;26;20000;-53
2024/04/17 09:13:27;;;;;;;10.85;5.57;;;;;;;;;;5383855;26;20077;-53
2024/04/17 09:15:53;;;;;;;8.00;4.80;;;;;;;;;;5383953;26;20399;-52
2024/04/17 09:18:23;;;;;;;8.48;4.53;;;;;;;;;;5383820;26;19996;-53
2024/04/17 09:20:49;;;;;;;7.35;4.60;;;;;;;;;;5387379;26;20008;-51
2024/04/17 09:23:14;;;;;;;10.05;4.10;;;;;;;;;;5387576;26;20024;-55
2024/04/17 09:25:39;;;;;;;9.50;3.63;;;;;;;;;;5387464;26;20004;-53
2024/04/17 09:28:05;;;;;;;9.82;4.10;;;;;;;;;;5386968;26;20003;-52
2024/04/17 09:30:30;;;;;;;8.88;3.72;;;;;;;;;;5387530;26;20011;-52
2024/04/17 09:32:55;;;;;;;14.50;7.88;;;;;;;;;;5387062;26;19992;-52
2024/04/17 09:35:21;;;;;;;10.23;4.40;;;;;;;;;;5326945;26;19996;-52
2024/04/17 09:37:46;;;;;;;8.95;4.10;;;;;;;;;;5387870;26;20066;-53
2024/04/17 09:40:12;;;;;;;9.63;4.35;;;;;;;;;;5386849;26;20066;-52
2024/04/17 09:42:41;;;;;;;11.25;4.05;;;;;;;;;;5387287;26;20039;-51
2024/04/17 09:45:09;;;;;;;9.60;4.05;;;;;;;;;;5388211;26;20000;-51
2024/04/17 09:47:34;;;;;;;13.13;4.35;;;;;;;;;;5386453;26;20010;-53
2024/04/17 09:50:02;;;;;;;10.90;4.40;;;;;;;;;;5387618;26;20365;-53
2024/04/17 09:52:28;;;;;;;11.25;3.60;;;;;;;;;;5356660;26;20000;-52
2024/04/17 09:54:54;;;;;;;9.77;3.85;;;;;;;;;;5386548;26;20070;-52
2024/04/17 09:57:19;;;;;;;11.95;3.67;;;;;;;;;;5386842;26;20007;-53
2024/04/17 09:59:45;;;;;;;8.88;3.72;;;;;;;;;;5387230;26;20305;-52
2024/04/17 10:02:11;;;;;;;10.90;3.38;;;;;;;;;;5385929;26;20011;-52
2024/04/17 10:04:38;;;;;;;11.25;3.70;;;;;;;;;;5386995;26;20011;-53
2024/04/17 10:07:04;;;;;;;10.13;3.40;;;;;;;;;;5386724;26;20015;-51
2024/04/17 10:09:30;;;;;;;8.40;3.40;;;;;;;;;;5386867;26;19996;-52
2024/04/17 10:11:56;;;;;;;11.13;3.83;;;;;;;;;;5386245;26;20000;-52
2024/04/17 10:14:22;;;;;;;11.98;3.50;;;;;;;;;;5386957;26;20098;-52
2024/04/17 10:16:48;;;;;;;8.55;3.17;;;;;;;;;;5386948;26;20000;-51
2024/04/17 10:19:13;;;;;;;12.10;3.40;;;;;;;;;;5386178;26;19992;-53
2024/04/17 10:21:38;;;;;;;9.30;3.10;;;;;;;;;;5355400;26;19996;-52
2024/04/17 10:24:07;;;;;;;9.93;3.60;;;;;;;;;;5387305;26;20011;-52
2024/04/17 10:26:40;;;;;;;9.18;3.10;;;;;;;;;;5386310;26;20024;-51
2024/04/17 10:29:05;;;;;;;8.60;2.97;;;;;;;;;;5386797;26;20066;-52
2024/04/17 10:31:36;;;;;;;7.07;2.60;;;;;;;;;;5386521;26;20000;-52
2024/04/17 10:34:03;;;;;;;9.85;3.45;;;;;;;;;;5386625;26;20289;-51
2024/04/17 10:36:28;;;;;;;7.57;3.38;;;;;;;;;;5351150;26;20398;-52
2024/04/17 10:38:54;;;;;;;8.43;2.83;;;;;;;;;;5379853;26;20002;-55
2024/04/17 10:41:20;;;;;;;8.88;2.70;;;;;;;;;;5386714;26;20355;-52
2024/04/17 10:43:45;;;;;;;8.27;3.03;;;;;;;;;;5386499;26;20012;-52
2024/04/17 10:46:11;;;;;;;9.68;2.60;;;;;;;;;;5355010;26;20301;-52
2024/04/17 10:48:43;;;;;;;9.77;2.67;;;;;;;;;;5385950;26;20062;-52
2024/04/17 10:51:09;;;;;;;10.13;2.75;;;;;;;;;;5386071;26;19996;-54
2024/04/17 10:53:35;;;;;;;7.85;2.70;;;;;;;;;;5356106;26;20007;-52
2024/04/17 10:56:02;;;;;;;6.88;2.55;;;;;;;;;;5355132;26;20409;-53
2024/04/17 10:58:28;;;;;;;7.10;1.90;;;;;;;;;;5386324;26;20014;-53
2024/04/17 11:00:59;;;;;;;7.95;2.00;;;;;;;;;;5385020;26;20427;-53
2024/04/17 11:03:24;;;;;;;6.95;2.28;;;;;;;;;;5385255;26;20011;-55
2024/04/17 11:05:49;;;;;;;9.65;2.45;;;;;;;;;;5386677;26;19997;-52
2024/04/17 11:08:15;;;;;;;8.23;2.10;;;;;;;;;;5386083;26;20011;-53
2024/04/17 11:10:40;;;;;;;6.90;2.00;;;;;;;;;;5385399;26;20297;-56
2024/04/17 11:13:12;;;;;;;11.32;2.08;;;;;;;;;;5385847;26;20047;-52
2024/04/17 11:15:38;;;;;;;9.30;2.42;;;;;;;;;;5386129;26;20000;-54
2024/04/17 11:18:03;;;;;;;7.68;2.20;;;;;;;;;;5386066;26;20007;-53
2024/04/17 11:20:28;;;;;;;6.82;2.20;;;;;;;;;;5385670;26;20008;-51
2024/04/17 11:22:54;;;;;;;6.90;2.17;;;;;;;;;;5385851;26;20062;-52
2024/04/17 11:25:19;;;;;;;8.75;3.05;;;;;;;;;;5385910;26;20012;-57
2024/04/17 11:27:44;;;;;;;6.88;2.40;;;;;;;;;;5385403;26;20004;-59
2024/04/17 11:30:16;;;;;;;6.55;1.77;;;;;;;;;;5385284;26;20002;-57
2024/04/17 11:32:41;;;;;;;6.57;1.85;;;;;;;;;;5385855;26;19996;-59
2024/04/17 11:35:15;;;;;;;5.93;1.55;;;;;;;;;;5385753;26;20003;-58
2024/04/17 11:37:50;;;;;;;6.40;1.67;;;;;;;;;;5385119;26;20096;-57
2024/04/17 11:40:15;;;;;;;7.18;1.83;;;;;;;;;;5385161;26;20000;-57
2024/04/17 11:42:41;;;;;;;6.55;1.83;;;;;;;;;;5383802;26;20011;-59
2024/04/17 11:45:12;;;;;;;9.43;1.80;;;;;;;;;;5385683;26;20004;-58
2024/04/17 11:47:38;;;;;;;7.03;1.77;;;;;;;;;;5385296;26;20036;-59
2024/04/17 11:50:05;;;;;;;7.00;1.88;;;;;;;;;;5385468;26;19996;-59
2024/04/17 11:52:32;;;;;;;8.98;1.80;;;;;;;;;;5385278;26;20011;-58
2024/04/17 11:54:57;;;;;;;7.20;1.80;;;;;;;;;;5385082;26;20315;-55
2024/04/17 11:57:22;;;;;;;6.68;1.75;;;;;;;;;;5385094;26;20000;-59
2024/04/17 11:59:47;;;;;;;5.45;1.67;;;;;;;;;;5385143;26;20007;-59
2024/04/17 12:02:13;;;;;;;6.40;1.60;;;;;;;;;;5353209;26;20297;-57
2024/04/17 12:04:38;;;;;;;4.78;1.10;;;;;;;;;;5385293;26;19996;-59
2024/04/17 12:07:03;;;;;;;9.90;4.75;;;;;;;;;;5385446;26;19996;-57
2024/04/17 12:09:31;;;;;;;5.43;1.42;;;;;;;;;;5385068;26;19996;-56
2024/04/17 12:11:57;;;;;;;7.65;2.88;;;;;;;;;;5353553;26;19992;-56
2024/04/17 12:14:22;;;;;;;7.32;1.55;;;;;;;;;;5384645;26;20404;-57
2024/04/17 12:16:47;;;;;;;7.10;1.48;;;;;;;;;;5385131;26;19999;-57
2024/04/17 12:19:13;;;;;;;8.20;1.60;;;;;;;;;;5384749;26;19988;-55
2024/04/17 12:21:39;;;;;;;6.30;1.48;;;;;;;;;;5384569;26;19992;-58
2024/04/17 12:24:08;;;;;;;7.22;1.40;;;;;;;;;;5384657;26;19988;-58
2024/04/17 12:26:52;;;;;;;6.07;1.60;;;;;;;;;;5384639;26;20003;-57
2024/04/17 12:29:20;;;;;;;4.53;1.33;;;;;;;;;;5349731;26;20081;-56
2024/04/17 12:31:46;;;;;;;5.03;1.58;;;;;;;;;;5349588;26;20287;-58
2024/04/17 12:34:11;;;;;;;6.70;1.65;;;;;;;;;;5349603;26;20067;-57
2024/04/17 12:36:39;;;;;;;6.97;1.80;;;;;;;;;;5349484;26;20080;-57
2024/04/17 12:39:05;;;;;;;8.52;2.42;;;;;;;;;;5349380;26;19997;-57
2024/04/17 12:41:31;;;;;;;6.75;2.38;;;;;;;;;;5365318;26;20007;-56
2024/04/17 12:43:56;;;;;;;6.47;1.98;;;;;;;;;;5385608;26;20390;-58
2024/04/17 12:46:21;;;;;;;5.93;1.77;;;;;;;;;;5384545;26;19996;-57
2024/04/17 12:48:47;;;;;;;5.93;1.90;;;;;;;;;;5384410;26;20000;-58
2024/04/17 12:51:12;;;;;;;6.07;1.58;;;;;;;;;;5384598;26;19992;-57
2024/04/17 12:53:38;;;;;;;6.30;1.65;;;;;;;;;;5386319;26;19995;-57
2024/04/17 12:56:03;;;;;;;5.95;1.95;;;;;;;;;;5387634;26;20000;-58
2024/04/17 12:58:28;;;;;;;7.05;2.58;;;;;;;;;;5388116;26;20050;-59
2024/04/17 13:00:53;;;;;;;7.82;1.80;;;;;;;;;;5386186;26;20000;-58
2024/04/17 13:03:19;;;;;;;8.18;1.98;;;;;;;;;;5387511;26;19996;-56
2024/04/17 13:05:44;;;;;;;6.13;1.90;;;;;;;;;;5387628;26;19996;-58
2024/04/17 13:08:09;;;;;;;6.30;1.73;;;;;;;;;;5387483;26;20004;-57
2024/04/17 13:10:34;;;;;;;11.50;2.05;;;;;;;;;;5387605;26;20009;-57
2024/04/17 13:12:59;;;;;;;5.05;1.40;;;;;;;;;;5388521;26;19996;-59
2024/04/17 13:15:25;;;;;;;13.43;2.83;;;;;;;;;;5357483;26;20000;-58
2024/04/17 13:17:51;;;;;;;5.70;2.08;;;;;;;;;;5387499;26;20028;-59
2024/04/17 13:20:16;;;;;;;10.02;2.30;;;;;;;;;;5387894;26;20006;-60
2024/04/17 13:22:41;;;;;;;6.97;1.77;;;;;;;;;;5387525;26;19998;-60
2024/04/17 13:25:06;;;;;;;4.88;1.20;;;;;;;;;;5387469;26;19988;-59
2024/04/17 13:27:32;;;;;;;5.57;1.55;;;;;;;;;;5387968;26;20004;-60
2024/04/17 13:29:58;;;;;;;5.07;1.40;;;;;;;;;;5387641;26;20003;-58
2024/04/17 13:32:23;;;;;;;7.43;1.50;;;;;;;;;;5387525;26;20297;-59
2024/04/17 13:34:54;;;;;;;5.05;1.50;;;;;;;;;;5387183;26;19988;-59
2024/04/17 13:37:20;;;;;;;5.22;1.30;;;;;;;;;;5387454;26;20043;-60
2024/04/17 13:39:45;;;;;;;3.67;1.35;;;;;;;;;;5387245;26;20000;-59
2024/04/17 13:42:10;;;;;;;3.85;1.40;;;;;;;;;;5387453;26;20007;-60
2024/04/17 13:44:35;;;;;;;4.85;1.50;;;;;;;;;;5386864;26;20000;-60
2024/04/17 13:47:00;;;;;;;5.07;1.40;;;;;;;;;;5386911;26;19988;-60
2024/04/17 13:49:26;;;;;;;3.63;1.30;;;;;;;;;;5387253;26;20007;-57
2024/04/17 13:51:51;;;;;;;4.50;1.42;;;;;;;;;;5386531;26;19992;-58
2024/04/17 13:54:17;;;;;;;6.22;1.60;;;;;;;;;;5386328;26;20309;-57
2024/04/17 13:56:43;;;;;;;4.97;1.42;;;;;;;;;;5387051;26;20004;-58
2024/04/17 13:59:08;;;;;;;6.28;1.60;;;;;;;;;;5386604;26;20030;-57
2024/04/17 14:01:33;;;;;;;4.38;1.35;;;;;;;;;;5385832;26;20006;-57
2024/04/17 14:03:58;;;;;;;5.30;2.10;;;;;;;;;;5385732;26;19992;-58
2024/04/17 14:06:24;;;;;;;4.13;1.70;;;;;;;;;;5386469;26;19996;-59
2024/04/17 14:08:49;;;;;;;4.32;1.35;;;;;;;;;;5355671;26;20011;-58
2024/04/17 14:11:14;;;;;;;5.50;1.75;;;;;;;;;;5386790;26;19999;-59
2024/04/17 14:13:39;;;;;;;6.72;1.65;;;;;;;;;;5386246;26;20007;-58
2024/04/17 14:16:08;;;;;;;4.28;1.65;;;;;;;;;;5386735;26;20361;-58
2024/04/17 14:18:33;;;;;;;7.28;1.88;;;;;;;;;;5387967;26;20421;-58
2024/04/17 14:20:58;;;;;;;2.88;1.00;;;;;;;;;;5386743;26;19996;-59
2024/04/17 14:23:24;;;;;;;4.78;1.65;;;;;;;;;;5386143;26;19996;-58
2024/04/17 14:25:55;;;;;;;5.03;1.65;;;;;;;;;;5387189;26;20007;-59